createdAt,value
2024-01-11T00:00:42.959Z,710.00
2024-01-11T00:01:42.892Z,709.00
2024-01-11T00:02:42.961Z,709.00
2024-01-11T00:03:42.888Z,709.00
2024-01-11T00:04:42.925Z,709.00
2024-01-11T00:05:43.085Z,709.00
2024-01-11T00:06:42.995Z,708.00
2024-01-11T00:07:42.899Z,708.00
2024-01-11T00:08:42.915Z,708.00
2024-01-11T00:09:42.923Z,707.00
2024-01-11T00:10:42.909Z,706.00
2024-01-11T00:11:43.016Z,706.00
2024-01-11T00:12:42.932Z,705.00
2024-01-11T00:13:42.905Z,705.00
2024-01-11T00:14:42.926Z,703.00
2024-01-11T00:15:43.001Z,702.00
2024-01-11T00:16:42.910Z,701.00
2024-01-11T00:17:43.209Z,699.00
2024-01-11T00:18:42.980Z,698.00
2024-01-11T00:19:42.928Z,699.00
2024-01-11T00:20:43.011Z,699.00
2024-01-11T00:21:42.928Z,699.00
2024-01-11T00:22:42.936Z,700.00
2024-01-11T00:23:42.973Z,700.00
2024-01-11T00:24:42.926Z,701.00
2024-01-11T00:25:42.929Z,700.00
2024-01-11T00:26:42.990Z,698.00
2024-01-11T00:27:42.934Z,698.00
2024-01-11T00:28:42.932Z,697.00
2024-01-11T00:29:42.951Z,696.00
2024-01-11T00:30:43.004Z,697.00
2024-01-11T00:31:43.022Z,694.00
2024-01-11T00:32:43.079Z,692.00
2024-01-11T00:33:43.113Z,691.00
2024-01-11T00:34:42.954Z,689.00
2024-01-11T00:35:43.091Z,686.00
2024-01-11T00:36:42.958Z,685.00
2024-01-11T00:37:42.953Z,686.00
2024-01-11T00:38:43.002Z,684.00
2024-01-11T00:39:42.962Z,684.00
2024-01-11T00:40:42.970Z,684.00
2024-01-11T00:41:43.031Z,685.00
2024-01-11T00:42:42.976Z,685.00
2024-01-11T00:43:42.973Z,688.00
2024-01-11T00:44:42.980Z,689.00
2024-01-11T00:45:42.989Z,688.00
2024-01-11T00:46:42.946Z,689.00
2024-01-11T00:47:43.088Z,688.00
2024-01-11T00:48:43.059Z,690.00
2024-01-11T00:49:43.009Z,688.00
2024-01-11T00:50:43.035Z,689.00
2024-01-11T00:51:42.971Z,689.00
2024-01-11T00:52:42.967Z,689.00
2024-01-11T00:53:42.983Z,685.00
2024-01-11T00:54:42.998Z,685.00
2024-01-11T00:55:43.006Z,684.00
2024-01-11T00:56:43.023Z,686.00
2024-01-11T00:57:42.985Z,683.00
2024-01-11T00:58:43.012Z,680.00
2024-01-11T00:59:42.983Z,678.00
2024-01-11T01:00:43.029Z,677.00
2024-01-11T01:01:42.995Z,677.00
2024-01-11T01:02:43.046Z,675.00
2024-01-11T01:03:43.045Z,674.00
2024-01-11T01:04:42.985Z,675.00
2024-01-11T01:05:43.074Z,674.00
2024-01-11T01:06:43.102Z,674.00
2024-01-11T01:07:43.001Z,673.00
2024-01-11T01:08:43.053Z,671.00
2024-01-11T01:09:43.022Z,670.00
2024-01-11T01:10:43.077Z,670.00
2024-01-11T01:11:43.137Z,671.00
2024-01-11T01:12:43.068Z,675.00
2024-01-11T01:13:43.086Z,675.00
2024-01-11T01:14:43.168Z,676.00
2024-01-11T01:15:43.140Z,677.00
2024-01-11T01:16:43.130Z,676.00
2024-01-11T01:17:43.287Z,674.00
2024-01-11T01:18:43.254Z,675.00
2024-01-11T01:19:43.186Z,675.00
2024-01-11T01:20:43.453Z,675.00
2024-01-11T01:21:43.226Z,672.00
2024-01-11T01:22:43.235Z,674.00
2024-01-11T01:23:43.309Z,675.00
2024-01-11T01:24:43.367Z,675.00
2024-01-11T01:25:43.358Z,674.00
2024-01-11T01:26:43.396Z,674.00
2024-01-11T01:27:43.417Z,676.00
2024-01-11T01:28:43.396Z,675.00
2024-01-11T01:29:43.509Z,674.00
2024-01-11T01:30:43.487Z,673.00
2024-01-11T01:31:43.456Z,676.00
2024-01-11T01:32:43.713Z,676.00
2024-01-11T01:33:43.613Z,678.00
2024-01-11T01:34:44.725Z,678.00
2024-01-11T01:35:43.646Z,678.00
2024-01-11T01:36:43.541Z,679.00
2024-01-11T01:37:43.560Z,678.00
2024-01-11T01:38:43.640Z,677.00
2024-01-11T01:39:43.629Z,678.00
2024-01-11T01:40:43.632Z,677.00
2024-01-11T01:41:43.656Z,676.00
2024-01-11T01:42:43.626Z,674.00
2024-01-11T01:43:43.632Z,676.00
2024-01-11T01:44:43.706Z,675.00
2024-01-11T01:45:44.081Z,676.00
2024-01-11T01:46:43.721Z,675.00
2024-01-11T01:47:43.786Z,675.00
2024-01-11T01:48:43.816Z,672.00
2024-01-11T01:49:43.773Z,674.00
2024-01-11T01:50:43.833Z,674.00
2024-01-11T01:51:43.743Z,675.00
2024-01-11T01:52:43.755Z,674.00
2024-01-11T01:53:43.787Z,673.00
2024-01-11T01:54:43.777Z,673.00
2024-01-11T01:55:43.822Z,672.00
2024-01-11T01:56:43.853Z,674.00
2024-01-11T01:57:43.831Z,673.00
2024-01-11T01:58:43.834Z,672.00
2024-01-11T01:59:43.854Z,674.00
2024-01-11T02:00:43.937Z,675.00
2024-01-11T02:01:43.914Z,677.00
2024-01-11T02:02:44.602Z,675.00
2024-01-11T02:03:43.985Z,675.00
2024-01-11T02:04:43.913Z,675.00
2024-01-11T02:05:44.134Z,672.00
2024-01-11T02:06:44.107Z,672.00
2024-01-11T02:07:43.962Z,672.00
2024-01-11T02:08:44.025Z,670.00
2024-01-11T02:09:44.029Z,667.00
2024-01-11T02:10:44.092Z,665.00
2024-01-11T02:11:44.105Z,664.00
2024-01-11T02:12:44.075Z,663.00
2024-01-11T02:13:44.108Z,664.00
2024-01-11T02:14:44.181Z,667.00
2024-01-11T02:15:44.201Z,666.00
2024-01-11T02:16:44.199Z,666.00
2024-01-11T02:17:44.483Z,666.00
2024-01-11T02:18:44.228Z,669.00
2024-01-11T02:19:44.240Z,669.00
2024-01-11T02:20:44.460Z,669.00
2024-01-11T02:21:44.272Z,667.00
2024-01-11T02:22:44.266Z,667.00
2024-01-11T02:23:45.098Z,667.00
2024-01-11T02:24:44.322Z,666.00
2024-01-11T02:25:44.389Z,665.00
2024-01-11T02:26:44.423Z,665.00
2024-01-11T02:27:44.413Z,665.00
2024-01-11T02:28:44.450Z,664.00
2024-01-11T02:29:44.637Z,665.00
2024-01-11T02:30:44.514Z,665.00
2024-01-11T02:31:44.486Z,664.00
2024-01-11T02:32:44.583Z,667.00
2024-01-11T02:33:44.582Z,666.00
2024-01-11T02:34:44.569Z,668.00
2024-01-11T02:35:47.681Z,666.00
2024-01-11T02:36:44.574Z,666.00
2024-01-11T02:37:44.582Z,666.00
2024-01-11T02:38:44.658Z,667.00
2024-01-11T02:39:44.576Z,666.00
2024-01-11T02:40:44.602Z,664.00
2024-01-11T02:41:44.633Z,666.00
2024-01-11T02:42:44.644Z,666.00
2024-01-11T02:43:44.589Z,668.00
2024-01-11T02:44:44.581Z,669.00
2024-01-11T02:45:44.677Z,669.00
2024-01-11T02:46:44.574Z,669.00
2024-01-11T02:47:44.703Z,668.00
2024-01-11T02:48:44.692Z,668.00
2024-01-11T02:49:44.584Z,668.00
2024-01-11T02:50:44.700Z,670.00
2024-01-11T02:51:44.620Z,670.00
2024-01-11T02:52:44.587Z,668.00
2024-01-11T02:53:44.644Z,667.00
2024-01-11T02:54:44.585Z,665.00
2024-01-11T02:55:44.636Z,664.00
2024-01-11T02:56:44.673Z,665.00
2024-01-11T02:57:44.594Z,666.00
2024-01-11T02:58:44.594Z,666.00
2024-01-11T02:59:44.606Z,665.00
2024-01-11T03:00:44.617Z,664.00
2024-01-11T03:01:44.599Z,664.00
2024-01-11T03:02:44.673Z,663.00
2024-01-11T03:03:44.598Z,663.00
2024-01-11T03:04:44.604Z,661.00
2024-01-11T03:05:44.663Z,660.00
2024-01-11T03:06:44.654Z,659.00
2024-01-11T03:07:44.612Z,659.00
2024-01-11T03:08:44.645Z,657.00
2024-01-11T03:09:44.600Z,657.00
2024-01-11T03:10:44.618Z,656.00
2024-01-11T03:11:44.633Z,656.00
2024-01-11T03:12:44.623Z,656.00
2024-01-11T03:13:44.629Z,656.00
2024-01-11T03:14:44.648Z,655.00
2024-01-11T03:15:44.644Z,655.00
2024-01-11T03:16:44.653Z,654.00
2024-01-11T03:17:44.759Z,655.00
2024-01-11T03:18:44.776Z,654.00
2024-01-11T03:19:44.662Z,654.00
2024-01-11T03:20:44.682Z,657.00
2024-01-11T03:21:44.630Z,659.00
2024-01-11T03:22:44.635Z,660.00
2024-01-11T03:23:44.686Z,658.00
2024-01-11T03:24:44.669Z,657.00
2024-01-11T03:25:44.660Z,657.00
2024-01-11T03:26:44.805Z,659.00
2024-01-11T03:27:44.654Z,658.00
2024-01-11T03:28:44.643Z,658.00
2024-01-11T03:29:44.698Z,657.00
2024-01-11T03:30:45.042Z,657.00
2024-01-11T03:31:44.644Z,657.00
2024-01-11T03:32:44.782Z,657.00
2024-01-11T03:33:44.778Z,655.00
2024-01-11T03:34:44.659Z,655.00
2024-01-11T03:35:44.678Z,654.00
2024-01-11T03:36:44.651Z,651.00
2024-01-11T03:37:44.646Z,651.00
2024-01-11T03:38:44.698Z,652.00
2024-01-11T03:39:44.668Z,653.00
2024-01-11T03:40:44.686Z,652.00
2024-01-11T03:41:44.693Z,653.00
2024-01-11T03:42:44.650Z,654.00
2024-01-11T03:43:44.659Z,655.00
2024-01-11T03:44:44.712Z,652.00
2024-01-11T03:45:44.665Z,651.00
2024-01-11T03:46:44.672Z,653.00
2024-01-11T03:47:44.807Z,653.00
2024-01-11T03:48:44.779Z,653.00
2024-01-11T03:49:44.666Z,654.00
2024-01-11T03:50:44.743Z,653.00
2024-01-11T03:51:44.661Z,655.00
2024-01-11T03:52:44.696Z,655.00
2024-01-11T03:53:44.732Z,657.00
2024-01-11T03:54:44.683Z,656.00
2024-01-11T03:55:44.674Z,655.00
2024-01-11T03:56:44.825Z,655.00
2024-01-11T03:57:44.685Z,654.00
2024-01-11T03:58:44.679Z,654.00
2024-01-11T03:59:44.731Z,655.00
2024-01-11T04:00:44.798Z,655.00
2024-01-11T04:01:44.696Z,654.00
2024-01-11T04:02:44.815Z,655.00
2024-01-11T04:03:44.704Z,654.00
2024-01-11T04:04:44.699Z,655.00
2024-01-11T04:05:44.917Z,657.00
2024-01-11T04:06:44.718Z,657.00
2024-01-11T04:07:44.701Z,656.00
2024-01-11T04:08:44.778Z,653.00
2024-01-11T04:09:44.691Z,653.00
2024-01-11T04:10:44.747Z,650.00
2024-01-11T04:11:44.761Z,652.00
2024-01-11T04:12:44.740Z,651.00
2024-01-11T04:13:44.763Z,650.00
2024-01-11T04:14:44.780Z,649.00
2024-01-11T04:15:44.816Z,651.00
2024-01-11T04:16:44.825Z,651.00
2024-01-11T04:17:44.928Z,651.00
2024-01-11T04:18:44.952Z,650.00
2024-01-11T04:19:44.908Z,648.00
2024-01-11T04:20:45.006Z,646.00
2024-01-11T04:21:44.963Z,645.00
2024-01-11T04:22:44.984Z,643.00
2024-01-11T04:23:45.020Z,641.00
2024-01-11T04:24:45.021Z,640.00
2024-01-11T04:25:45.036Z,639.00
2024-01-11T04:26:45.102Z,637.00
2024-01-11T04:27:45.084Z,638.00
2024-01-11T04:28:45.093Z,638.00
2024-01-11T04:29:45.123Z,636.00
2024-01-11T04:30:45.144Z,635.00
2024-01-11T04:31:45.130Z,634.00
2024-01-11T04:32:45.271Z,633.00
2024-01-11T04:33:45.245Z,635.00
2024-01-11T04:34:45.181Z,634.00
2024-01-11T04:35:45.280Z,635.00
2024-01-11T04:36:45.210Z,631.00
2024-01-11T04:37:45.232Z,629.00
2024-01-11T04:38:45.308Z,628.00
2024-01-11T04:39:45.267Z,627.00
2024-01-11T04:40:45.290Z,628.00
2024-01-11T04:41:45.339Z,630.00
2024-01-11T04:42:45.350Z,629.00
2024-01-11T04:43:45.377Z,628.00
2024-01-11T04:44:45.487Z,630.00
2024-01-11T04:45:45.520Z,630.00
2024-01-11T04:46:45.442Z,629.00
2024-01-11T04:47:45.642Z,630.00
2024-01-11T04:48:45.617Z,629.00
2024-01-11T04:49:45.510Z,629.00
2024-01-11T04:50:45.582Z,631.00
2024-01-11T04:51:45.582Z,631.00
2024-01-11T04:52:45.627Z,630.00
2024-01-11T04:53:45.718Z,629.00
2024-01-11T04:54:45.633Z,630.00
2024-01-11T04:55:45.732Z,630.00
2024-01-11T04:57:53.014Z,633.00
2024-01-11T04:58:53.014Z,635.00
2024-01-11T04:59:53.015Z,639.00
2024-01-11T05:00:53.092Z,638.00
2024-01-11T05:01:53.045Z,636.00
2024-01-11T05:02:53.071Z,636.00
2024-01-11T05:03:53.070Z,635.00
2024-01-11T05:04:53.037Z,635.00
2024-01-11T05:05:53.114Z,638.00
2024-01-11T05:06:53.145Z,639.00
2024-01-11T05:07:53.092Z,638.00
2024-01-11T05:08:53.027Z,638.00
2024-01-11T05:09:53.061Z,636.00
2024-01-11T05:10:53.036Z,634.00
2024-01-11T05:11:53.029Z,633.00
2024-01-11T05:12:53.061Z,633.00
2024-01-11T05:13:53.044Z,632.00
2024-01-11T05:14:53.074Z,631.00
2024-01-11T05:15:53.081Z,633.00
2024-01-11T05:16:53.083Z,632.00
2024-01-11T05:17:53.082Z,631.00
2024-01-11T05:18:53.180Z,632.00
2024-01-11T05:19:53.041Z,631.00
2024-01-11T05:20:53.123Z,632.00
2024-01-11T05:21:53.045Z,632.00
2024-01-11T05:22:53.045Z,633.00
2024-01-11T05:23:53.070Z,633.00
2024-01-11T05:24:53.086Z,632.00
2024-01-11T05:25:53.095Z,633.00
2024-01-11T05:26:53.081Z,632.00
2024-01-11T05:27:53.060Z,627.00
2024-01-11T05:28:53.053Z,626.00
2024-01-11T05:29:53.061Z,627.00
2024-01-11T05:30:53.133Z,629.00
2024-01-11T05:31:53.200Z,629.00
2024-01-11T05:32:53.138Z,628.00
2024-01-11T05:33:53.219Z,629.00
2024-01-11T05:34:53.093Z,628.00
2024-01-11T05:35:53.075Z,627.00
2024-01-11T05:36:53.084Z,625.00
2024-01-11T05:37:53.106Z,626.00
2024-01-11T05:38:53.064Z,626.00
2024-01-11T05:39:53.122Z,626.00
2024-01-11T05:40:53.079Z,626.00
2024-01-11T05:41:53.077Z,627.00
2024-01-11T05:42:53.090Z,628.00
2024-01-11T05:43:53.079Z,626.00
2024-01-11T05:44:53.088Z,626.00
2024-01-11T05:45:53.093Z,627.00
2024-01-11T05:46:53.084Z,627.00
2024-01-11T05:47:53.177Z,627.00
2024-01-11T05:48:53.160Z,627.00
2024-01-11T05:49:53.072Z,628.00
2024-01-11T05:50:53.095Z,627.00
2024-01-11T05:51:53.103Z,628.00
2024-01-11T05:52:53.098Z,629.00
2024-01-11T05:53:53.123Z,628.00
2024-01-11T05:54:53.204Z,626.00
2024-01-11T05:55:55.213Z,627.00
2024-01-11T05:56:53.227Z,624.00
2024-01-11T05:57:53.262Z,624.00
2024-01-11T05:58:53.326Z,623.00
2024-01-11T05:59:53.335Z,622.00
2024-01-11T06:00:53.488Z,622.00
2024-01-11T06:01:53.405Z,623.00
2024-01-11T06:02:53.415Z,623.00
2024-01-11T06:03:53.539Z,623.00
2024-01-11T06:04:53.471Z,624.00
2024-01-11T06:05:53.604Z,623.00
2024-01-11T06:06:53.542Z,625.00
2024-01-11T06:07:53.601Z,625.00
2024-01-11T06:08:53.634Z,624.00
2024-01-11T06:09:53.759Z,623.00
2024-01-11T06:10:53.673Z,622.00
2024-01-11T06:11:53.743Z,623.00
2024-01-11T06:12:53.784Z,624.00
2024-01-11T06:13:53.799Z,627.00
2024-01-11T06:14:53.838Z,626.00
2024-01-11T06:15:53.880Z,623.00
2024-01-11T06:16:53.922Z,624.00
2024-01-11T06:17:54.142Z,626.00
2024-01-11T06:18:54.068Z,622.00
2024-01-11T06:19:54.017Z,623.00
2024-01-11T06:20:54.085Z,621.00
2024-01-11T06:21:54.099Z,621.00
2024-01-11T06:22:54.155Z,620.00
2024-01-11T06:23:54.189Z,621.00
2024-01-11T06:24:54.217Z,622.00
2024-01-11T06:25:54.252Z,622.00
2024-01-11T06:26:54.293Z,623.00
2024-01-11T06:27:54.325Z,621.00
2024-01-11T06:28:54.386Z,619.00
2024-01-11T06:29:54.430Z,621.00
2024-01-11T06:30:54.516Z,629.00
2024-01-11T06:31:54.491Z,649.00
2024-01-11T06:32:54.603Z,661.00
2024-01-11T06:33:54.682Z,776.00
2024-01-11T06:35:17.208Z,1107.00
2024-01-11T06:35:54.660Z,1131.00
2024-01-11T06:36:55.206Z,1185.00
2024-01-11T06:37:54.630Z,1176.00
2024-01-11T06:38:54.657Z,1176.00
2024-01-11T06:39:54.601Z,1178.00
2024-01-11T06:40:54.630Z,1172.00
2024-01-11T06:41:54.695Z,1201.00
2024-01-11T06:42:54.647Z,1225.00
2024-01-11T06:43:54.624Z,1269.00
2024-01-11T06:44:54.657Z,1262.00
2024-01-11T06:45:54.635Z,1272.00
2024-01-11T06:46:54.635Z,1257.00
2024-01-11T06:47:54.736Z,1295.00
2024-01-11T06:48:54.709Z,1340.00
2024-01-11T06:49:54.686Z,1338.00
2024-01-11T06:50:54.698Z,1345.00
2024-01-11T06:51:54.665Z,1328.00
2024-01-11T06:52:54.644Z,1319.00
2024-01-11T06:53:54.757Z,1321.00
2024-01-11T06:54:54.661Z,1322.00
2024-01-11T06:55:54.690Z,1323.00
2024-01-11T06:56:54.650Z,1328.00
2024-01-11T06:57:54.680Z,1333.00
2024-01-11T06:58:54.651Z,1341.00
2024-01-11T06:59:54.745Z,1333.00
2024-01-11T07:00:54.672Z,1333.00
2024-01-11T07:01:54.661Z,1349.00
2024-01-11T07:02:54.669Z,1385.00
2024-01-11T07:03:54.713Z,1268.00
2024-01-11T07:04:54.703Z,1308.00
2024-01-11T07:05:54.798Z,1345.00
2024-01-11T07:06:54.766Z,1350.00
2024-01-11T07:07:54.771Z,1361.00
2024-01-11T07:08:54.796Z,1396.00
2024-01-11T07:09:54.792Z,1381.00
2024-01-11T07:10:54.817Z,1376.00
2024-01-11T07:11:54.845Z,1386.00
2024-01-11T07:12:54.841Z,1386.00
2024-01-11T07:13:54.876Z,1389.00
2024-01-11T07:14:54.872Z,1408.00
2024-01-11T07:15:54.914Z,1414.00
2024-01-11T07:16:54.922Z,1406.00
2024-01-11T07:17:55.127Z,1414.00
2024-01-11T07:18:55.012Z,1413.00
2024-01-11T07:19:55.029Z,1414.00
2024-01-11T07:20:55.114Z,1415.00
2024-01-11T07:21:55.027Z,1419.00
2024-01-11T07:22:54.984Z,1414.00
2024-01-11T07:23:55.126Z,1411.00
2024-01-11T07:24:55.047Z,1318.00
2024-01-11T07:25:55.029Z,1407.00
2024-01-11T07:26:55.354Z,1382.00
2024-01-11T07:27:55.090Z,1383.00
2024-01-11T07:28:55.083Z,1382.00
2024-01-11T07:29:55.207Z,1385.00
2024-01-11T07:30:55.227Z,1391.00
2024-01-11T07:31:55.186Z,1391.00
2024-01-11T07:32:55.355Z,1436.00
2024-01-11T07:33:55.255Z,1448.00
2024-01-11T07:34:55.218Z,1316.00
2024-01-11T07:35:55.365Z,1342.00
2024-01-11T07:36:55.721Z,1416.00
2024-01-11T07:37:55.227Z,1407.00
2024-01-11T07:38:56.254Z,1431.00
2024-01-11T07:39:55.389Z,1530.00
2024-01-11T07:40:55.358Z,1537.00
2024-01-11T07:41:55.426Z,1601.00
2024-01-11T07:42:55.409Z,1522.00
2024-01-11T07:43:56.279Z,1490.00
2024-01-11T07:44:55.437Z,1470.00
2024-01-11T07:45:56.303Z,1458.00
2024-01-11T07:46:59.177Z,1470.00
2024-01-11T07:47:55.489Z,1528.00
2024-01-11T07:48:55.576Z,1564.00
2024-01-11T07:49:55.399Z,1571.00
2024-01-11T07:50:55.430Z,1587.00
2024-01-11T07:51:55.408Z,1595.00
2024-01-11T07:52:55.458Z,1596.00
2024-01-11T07:53:56.225Z,1603.00
2024-01-11T07:54:55.404Z,1612.00
2024-01-11T07:55:55.412Z,1624.00
2024-01-11T07:56:55.428Z,1636.00
2024-01-11T07:57:55.434Z,1650.00
2024-01-11T07:58:55.477Z,1658.00
2024-01-11T07:59:55.433Z,1663.00
2024-01-11T08:00:55.652Z,1669.00
2024-01-11T08:01:55.550Z,1675.00
2024-01-11T08:02:55.520Z,1680.00
2024-01-11T08:03:55.476Z,1678.00
2024-01-11T08:04:55.423Z,1671.00
2024-01-11T08:05:55.554Z,1671.00
2024-01-11T08:06:55.518Z,1736.00
2024-01-11T08:07:55.453Z,1769.00
2024-01-11T08:08:55.481Z,1766.00
2024-01-11T08:09:55.513Z,1762.00
2024-01-11T08:10:55.406Z,1756.00
2024-01-11T08:11:57.402Z,1648.00
2024-01-11T08:12:55.414Z,1604.00
2024-01-11T08:13:55.549Z,1612.00
2024-01-11T08:14:55.415Z,1711.00
2024-01-11T08:15:55.487Z,1617.00
2024-01-11T08:16:55.494Z,1599.00
2024-01-11T08:17:55.525Z,1615.00
2024-01-11T08:18:55.437Z,1625.00
2024-01-11T08:19:55.478Z,1634.00
2024-01-11T08:20:55.446Z,1642.00
2024-01-11T08:21:55.452Z,1639.00
2024-01-11T08:22:55.449Z,1662.00
2024-01-11T08:23:56.416Z,1726.00
2024-01-11T08:24:55.428Z,1713.00
2024-01-11T08:25:55.489Z,1696.00
2024-01-11T08:26:55.502Z,1737.00
2024-01-11T08:27:55.484Z,1886.00
2024-01-11T08:28:55.518Z,1776.00
2024-01-11T08:29:55.556Z,1633.00
2024-01-11T08:30:55.757Z,1494.00
2024-01-11T08:31:55.742Z,1494.00
2024-01-11T08:32:55.830Z,1534.00
2024-01-11T08:33:55.846Z,1796.00
2024-01-11T08:34:55.870Z,1815.00
2024-01-11T08:35:55.957Z,1822.00
2024-01-11T08:36:55.961Z,1885.00
2024-01-11T08:37:56.056Z,1726.00
2024-01-11T08:38:56.140Z,1578.00
2024-01-11T08:39:56.176Z,1705.00
2024-01-11T08:40:56.251Z,1515.00
2024-01-11T08:41:56.313Z,1298.00
2024-01-11T08:42:56.364Z,1321.00
2024-01-11T08:43:56.452Z,1381.00
2024-01-11T08:44:56.978Z,1168.00
2024-01-11T08:45:56.558Z,1154.00
2024-01-11T08:46:57.276Z,1148.00
2024-01-11T08:47:56.672Z,1143.00
2024-01-11T08:48:56.790Z,1144.00
2024-01-11T08:49:56.662Z,1146.00
2024-01-11T08:50:56.765Z,1149.00
2024-01-11T08:51:56.788Z,1150.00
2024-01-11T08:52:57.169Z,1156.00
2024-01-11T08:53:56.861Z,1247.00
2024-01-11T08:54:56.851Z,1336.00
2024-01-11T08:55:56.903Z,1446.00
2024-01-11T08:56:57.244Z,1465.00
2024-01-11T08:57:56.877Z,1470.00
2024-01-11T08:58:56.888Z,1743.00
2024-01-11T08:59:56.878Z,1710.00
2024-01-11T09:00:56.970Z,1763.00
2024-01-11T09:02:06.262Z,1762.00
2024-01-11T09:02:59.015Z,1749.00
2024-01-11T09:03:56.942Z,1736.00
2024-01-11T09:04:56.913Z,1556.00
2024-01-11T09:05:56.971Z,1567.00
2024-01-11T09:06:57.400Z,1601.00
2024-01-11T09:07:57.009Z,1574.00
2024-01-11T09:08:57.777Z,1524.00
2024-01-11T09:09:57.825Z,1510.00
2024-01-11T09:10:57.134Z,1515.00
2024-01-11T09:11:57.307Z,1499.00
2024-01-11T09:12:57.768Z,1479.00
2024-01-11T09:13:57.227Z,1501.00
2024-01-11T09:14:57.246Z,1420.00
2024-01-11T09:15:57.368Z,1447.00
2024-01-11T09:16:57.338Z,1457.00
2024-01-11T09:17:57.566Z,1445.00
2024-01-11T09:18:57.424Z,1428.00
2024-01-11T09:19:57.389Z,1094.00
2024-01-11T09:20:57.533Z,1121.00
2024-01-11T09:21:57.465Z,1299.00
2024-01-11T09:22:57.556Z,1363.00
2024-01-11T09:23:57.536Z,1398.00
2024-01-11T09:24:57.654Z,1459.00
2024-01-11T09:25:57.657Z,1590.00
2024-01-11T09:26:57.783Z,1724.00
2024-01-11T09:27:57.724Z,1785.00
2024-01-11T09:28:57.812Z,1660.00
2024-01-11T09:29:57.874Z,1585.00
2024-01-11T09:30:57.984Z,1535.00
2024-01-11T09:31:58.421Z,1496.00
2024-01-11T09:32:58.376Z,1488.00
2024-01-11T09:33:58.177Z,1492.00
2024-01-11T09:34:58.740Z,1494.00
2024-01-11T09:35:58.382Z,1505.00
2024-01-11T09:36:58.298Z,1518.00
2024-01-11T09:37:58.382Z,1512.00
2024-01-11T09:38:58.484Z,1511.00
2024-01-11T09:39:58.421Z,1505.00
2024-01-11T09:40:58.449Z,1700.00
2024-01-11T09:41:58.796Z,1702.00
2024-01-11T09:42:59.405Z,1720.00
2024-01-11T09:43:58.518Z,1735.00
2024-01-11T09:44:58.580Z,1744.00
2024-01-11T09:45:59.304Z,1676.00
2024-01-11T09:46:58.740Z,1601.00
2024-01-11T09:47:58.725Z,1583.00
2024-01-11T09:48:58.721Z,1582.00
2024-01-11T09:49:58.712Z,1579.00
2024-01-11T09:50:58.743Z,1586.00
2024-01-11T09:51:58.762Z,1589.00
2024-01-11T09:52:58.768Z,1593.00
2024-01-11T09:53:58.744Z,1546.00
2024-01-11T09:54:58.866Z,1515.00
2024-01-11T09:55:58.748Z,1516.00
2024-01-11T09:56:58.797Z,1504.00
2024-01-11T09:57:58.836Z,1460.00
2024-01-11T09:58:58.956Z,1439.00
2024-01-11T09:59:58.996Z,1427.00
2024-01-11T10:00:58.867Z,1418.00
2024-01-11T10:01:58.877Z,1420.00
2024-01-11T10:02:58.951Z,1422.00
2024-01-11T10:03:58.989Z,1421.00
2024-01-11T10:04:58.941Z,1405.00
2024-01-11T10:05:59.208Z,1361.00
2024-01-11T10:06:59.124Z,1365.00
2024-01-11T10:07:59.071Z,1369.00
2024-01-11T10:08:59.087Z,1362.00
2024-01-11T10:09:59.136Z,1354.00
2024-01-11T10:10:59.212Z,1346.00
2024-01-11T10:11:59.249Z,1336.00
2024-01-11T10:12:59.325Z,1332.00
2024-01-11T10:13:59.336Z,1328.00
2024-01-11T10:14:59.385Z,1327.00
2024-01-11T10:15:59.445Z,1322.00
2024-01-11T10:16:59.506Z,1322.00
2024-01-11T10:17:59.782Z,1322.00
2024-01-11T10:18:59.774Z,1320.00
2024-01-11T10:19:59.797Z,1321.00
2024-01-11T10:20:59.839Z,1320.00
2024-01-11T10:22:00.787Z,1324.00
2024-01-11T10:22:59.874Z,1325.00
2024-01-11T10:24:00.003Z,1327.00
2024-01-11T10:24:59.972Z,1324.00
2024-01-11T10:26:01.788Z,1325.00
2024-01-11T10:27:00.281Z,1325.00
2024-01-11T10:28:00.135Z,1326.00
2024-01-11T10:29:00.306Z,1322.00
2024-01-11T10:30:00.277Z,1315.00
2024-01-11T10:31:00.615Z,1346.00
2024-01-11T10:32:00.947Z,1368.00
2024-01-11T10:33:00.734Z,1494.00
2024-01-11T10:34:00.704Z,1789.00
2024-01-11T10:35:01.250Z,1806.00
2024-01-11T10:36:00.701Z,1677.00
2024-01-11T10:37:00.760Z,1516.00
2024-01-11T10:38:00.946Z,1372.00
2024-01-11T10:39:01.301Z,1305.00
2024-01-11T10:40:01.039Z,1270.00
2024-01-11T10:41:01.101Z,1241.00
2024-01-11T10:42:03.538Z,1232.00
2024-01-11T10:43:01.086Z,1231.00
2024-01-11T10:44:01.151Z,1247.00
2024-01-11T10:45:01.154Z,1319.00
2024-01-11T10:46:01.105Z,1254.00
2024-01-11T10:47:01.114Z,1252.00
2024-01-11T10:48:03.901Z,1274.00
2024-01-11T10:49:01.186Z,1267.00
2024-01-11T10:50:01.156Z,1330.00
2024-01-11T10:51:01.113Z,1346.00
2024-01-11T10:52:01.154Z,1338.00
2024-01-11T10:53:01.151Z,1353.00
2024-01-11T10:54:02.345Z,1359.00
2024-01-11T10:55:01.111Z,1372.00
2024-01-11T10:56:01.196Z,1378.00
2024-01-11T10:57:01.139Z,1386.00
2024-01-11T10:58:01.122Z,1391.00
2024-01-11T10:59:01.332Z,1383.00
2024-01-11T11:00:01.123Z,1370.00
2024-01-11T11:01:01.195Z,1361.00
2024-01-11T11:02:01.954Z,1358.00
2024-01-11T11:03:01.309Z,1357.00
2024-01-11T11:04:01.106Z,1355.00
2024-01-11T11:05:01.169Z,1328.00
2024-01-11T11:06:01.223Z,1336.00
2024-01-11T11:07:01.115Z,1323.00
2024-01-11T11:08:01.230Z,1324.00
2024-01-11T11:09:01.117Z,1335.00
2024-01-11T11:10:01.162Z,1348.00
2024-01-11T11:11:01.157Z,1377.00
2024-01-11T11:12:01.117Z,1382.00
2024-01-11T11:13:01.305Z,1366.00
2024-01-11T11:14:01.147Z,1307.00
2024-01-11T11:15:01.127Z,1297.00
2024-01-11T11:16:02.328Z,1285.00
2024-01-11T11:17:01.264Z,1276.00
2024-01-11T11:18:01.239Z,1274.00
2024-01-11T11:19:01.199Z,1273.00
2024-01-11T11:20:01.180Z,1287.00
2024-01-11T11:21:01.175Z,1274.00
2024-01-11T11:22:01.287Z,1269.00
2024-01-11T11:23:01.291Z,1264.00
2024-01-11T11:24:01.331Z,1259.00
2024-01-11T11:25:01.413Z,1254.00
2024-01-11T11:26:01.547Z,1251.00
2024-01-11T11:27:02.012Z,1459.00
2024-01-11T11:28:01.555Z,1422.00
2024-01-11T11:29:02.276Z,1403.00
2024-01-11T11:30:01.738Z,1399.00
2024-01-11T11:31:01.676Z,1351.00
2024-01-11T11:32:01.915Z,1337.00
2024-01-11T11:33:02.029Z,1326.00
2024-01-11T11:34:03.789Z,1330.00
2024-01-11T11:35:02.142Z,1338.00
2024-01-11T11:36:01.981Z,1348.00
2024-01-11T11:37:02.037Z,1347.00
2024-01-11T11:38:02.123Z,1321.00
2024-01-11T11:39:02.795Z,1304.00
2024-01-11T11:40:04.864Z,1284.00
2024-01-11T11:41:02.387Z,1235.00
2024-01-11T11:42:02.299Z,1156.00
2024-01-11T11:43:02.817Z,1128.00
2024-01-11T11:44:02.274Z,1111.00
2024-01-11T11:45:02.239Z,1094.00
2024-01-11T11:46:04.092Z,1081.00
2024-01-11T11:47:02.269Z,1070.00
2024-01-11T11:48:02.339Z,1059.00
2024-01-11T11:49:02.332Z,1051.00
2024-01-11T11:50:02.370Z,1043.00
2024-01-11T11:51:02.404Z,1042.00
2024-01-11T11:52:02.282Z,1035.00
2024-01-11T11:53:02.345Z,1026.00
2024-01-11T11:54:03.293Z,1018.00
2024-01-11T11:55:02.433Z,1012.00
2024-01-11T11:56:02.484Z,1006.00
2024-01-11T11:57:02.549Z,1004.00
2024-01-11T11:58:02.592Z,1005.00
2024-01-11T11:59:02.654Z,998.00
2024-01-11T12:00:02.692Z,984.00
2024-01-11T12:01:02.736Z,981.00
2024-01-11T12:02:02.812Z,978.00
2024-01-11T12:03:03.840Z,977.00
2024-01-11T12:04:02.888Z,973.00
2024-01-11T12:05:03.036Z,965.00
2024-01-11T12:06:03.258Z,936.00
2024-01-11T12:07:03.108Z,947.00
2024-01-11T12:08:03.239Z,937.00
2024-01-11T12:09:03.213Z,890.00
2024-01-11T12:10:03.292Z,888.00
2024-01-11T12:11:03.391Z,951.00
2024-01-11T12:12:11.484Z,964.00
2024-01-11T12:13:04.483Z,943.00
2024-01-11T12:14:03.553Z,943.00
2024-01-11T12:15:03.468Z,882.00
2024-01-11T12:16:03.430Z,878.00
2024-01-11T12:17:03.548Z,887.00
2024-01-11T12:18:03.566Z,932.00
2024-01-11T12:19:03.533Z,1045.00
2024-01-11T12:20:03.508Z,1073.00